Weather observations for the past three days for
Anvik, Anvik Airport
Imperial (Metric)
Date Time (akdt) Wind (mph) Vis. (mi.) Weather Sky Cond. Temperature (ºF) Relative Humidity Wind Chill (°F) Heat Index (°F) Pressure Precipitation (in)
Air Dwpt 6 hour altimeter (in) sea level (mb) 1 hr 3 hr 6 hr
Max. Min.
02 23:56 NE 7 10.00 Overcast BKN050 OVC060 46 39.9 79% 43 29.95 1022.4
02 22:56 NE 6 10.00 Light Rain OVC060 46 41 83% 44 29.95 1022.3
02 21:56 NE 6 10.00 Overcast BKN060 OVC080 46.9 39 51.1 46.9 74% 45 29.95 1022.3
02 20:56 NE 6 10.00 Light Rain OVC070 48 37.9 68% 46 29.97 1022.9
02 18:56 NE 5 6.00 Mostly Cloudy with Haze BKN100 50 37 61% 49 29.99 1023.7
02 17:56 E 6 10.00 Fair CLR 50 35.1 57% 48 29.99 1023.6
02 16:56 E 7 10.00 Fair CLR 50 36 59% 48 29.99 1023.5
02 15:56 E 6 10.00 Fair CLR 48.9 36 48.9 39 61% 47 30 1024.0
02 14:56 E 5 10.00 Fair CLR 48 34 58% 47 30.01 1024.5
02 13:56 E 5 10.00 Fair CLR 46.9 35.1 63% 45 30.02 1024.6
02 12:56 NE 6 10.00 Fair CLR 45 35.1 68% 42 30.02 1025.0
02 11:56 E 7 10.00 Fair CLR 42.1 34 73% 38 30.02 1025.0
02 10:56 NE 6 10.00 Fair CLR 39.9 33.1 77% 36 30.01 1024.5
02 09:56 NE 5 10.00 Fair CLR 39 33.1 42.1 37.9 79% 36 30 1024.2
02 08:56 NE 6 10.00 Fair CLR 39 32 76% 35 29.99 1023.8
02 07:56 NE 5 10.00 Fair CLR 37.9 32 79% 35 29.99 1023.7
02 06:56 NE 5 10.00 Fair CLR 37.9 34 86% 35 29.96 1022.5
02 05:56 N 3 10.00 Mostly Cloudy BKN044 39.9 35.1 83% 29.96 1022.3
02 04:56 Calm 10.00 Overcast OVC046 41 36 82% 29.96 1022.2
02 03:56 Vrbl 3 10.00 Overcast OVC048 42.1 36 48.9 42.1 79% 29.95 1021.6
02 02:56 Vrbl 3 10.00 Overcast OVC048 42.1 37 82% 29.92 1020.7
02 01:56 NW 3 10.00 Overcast OVC048 44.1 37 76% 29.9 1020.1
02 00:56 N 3 10.00 Overcast OVC042 45 37 74% 29.9 1020.1
01 23:56 N 5 10.00 Overcast OVC046 46 36 68% 44 29.89 1019.5
01 22:56 Calm 10.00 Overcast OVC044 48 37.9 68% 29.87 1018.8
01 21:56 N 5 10.00 Overcast OVC044 48.9 37.9 55 48.9 66% 48 29.85 1018.4
01 20:56 N 3 10.00 Overcast OVC044 51.1 42.1 71% 29.84 1018.0
01 19:56 N 5 10.00 Overcast OVC040 52 39.9 64% 29.83 1017.8
01 18:56 NW 3 10.00 Fair CLR 53.1 37.9 57% 29.83 1017.6
01 17:56 NW 5 10.00 Fair CLR 54 37 53% 29.83 1017.5
01 16:56 N 5 10.00 Fair CLR 54 37.9 55% 29.84 1017.8
01 15:56 SW 5 10.00 Fair CLR 53.1 37 53.1 39 55% 29.85 1017.9
01 14:56 Calm 10.00 Fair CLR 51.1 36 56% 29.85 1018.4
01 13:56 E 5 10.00 Fair CLR 50 37 61% 49 29.86 1018.5
01 12:56 NE 3 10.00 Fair CLR 46.9 36 66% 29.87 1018.8
01 11:56 Vrbl 3 10.00 Fair CLR 45 37 74% 29.88 1019.3
01 10:56 Calm 10.00 Fair CLR 43 37 80% 29.88 1019.5
01 09:56 Vrbl 3 10.00 Fair CLR 39.9 36 41 34 86% 29.87 1019.4
01 08:56 N 3 10.00 Fair CLR 37 35.1 93% 29.87 1019.1
01 07:56 NE 3 10.00 Fair CLR 37 36 96% 29.87 1019.2
01 06:56 NE 3 10.00 Fair CLR 37.9 36 93% 29.87 1019.1
01 05:56 NE 5 10.00 Fair CLR 39 36 89% 36 29.87 1019.0
01 04:56 NE 5 10.00 Fair CLR 39 36 89% 36 29.87 1018.9
01 03:56 NE 6 10.00 Fair CLR 41 36 48 39.9 82% 38 29.87 1018.8
01 02:56 NE 5 10.00 Fair CLR 39.9 37 89% 37 29.88 1019.4
01 01:56 NE 3 10.00 Fair CLR 43 37 80% 29.87 1019.1
01 00:56 NE 7 10.00 Fair CLR 44.1 36 73% 41 29.88 1019.6
31 23:56 NE 6 10.00 Fair CLR 46 36 68% 44 29.89 1019.8
31 22:56 NW 3 10.00 Fair CLR 45 37 74% 29.9 1020.3
31 21:56 S 6 10.00 Fair CLR 48 35.1 54 48 61% 46 29.89 1020.1
31 20:56 S 6 10.00 Fair CLR 50 35.1 57% 48 29.9 1020.4
31 19:56 Calm 10.00 Fair CLR 52 30 43% 29.91 1020.9
31 18:56 W 6 10.00 Fair CLR 53.1 30.9 43% 29.92 1020.9
31 17:56 Vrbl 3 10.00 Fair CLR 53.1 32 45% 29.93 1021.6
31 16:56 Vrbl 3 10.00 Fair CLR 53.1 33.1 47% 29.94 1021.9
31 15:56 Vrbl 5 10.00 Fair CLR 51.1 34 51.1 37.9 52% 29.94 1021.9
31 14:56 Vrbl 5 10.00 Partly Cloudy SCT035 50 36 59% 49 29.95 1022.3
31 13:56 NW 6 10.00 Fair CLR 48 35.1 61% 46 29.95 1022.5
31 12:56 Vrbl 7 10.00 Fair CLR 46 35.1 66% 43 29.96 1023.0
31 11:56 NW 8 10.00 Fair CLR 44.1 35.1 71% 40 29.95 1022.7
31 10:56 W 6 10.00 Fair CLR 42.1 37 82% 39 29.95 1022.6
31 09:56 W 3 10.00 Fair CLR 39 39 39 33.1 100% 29.94 1022.3
31 08:56 W 5 10.00 Fair CLR 37 37 100% 34 29.93 1021.7
31 07:56 SW 3 10.00 Fair CLR 33.1 33.1 100% 29.92 1021.7
31 06:56 SW 6 10.00 Fair CLR 34 34 100% 29 29.91 1021.3
31 05:56 W 6 10.00 Fair CLR 34 34 100% 29 29.91 1021.0
31 04:56 W 7 10.00 A Few Clouds FEW029 35.1 34 96% 30 29.9 1020.7
31 03:56 W 7 10.00 Fair CLR 36 35.1 42.1 36 97% 31 29.88 1020.1
31 02:56 W 7 10.00 Mostly Cloudy BKN034 37 35.1 93% 32 29.88 1019.9
31 01:56 W 9 10.00 Fair CLR 37 35.1 93% 31 29.87 1019.7
31 00:56 W 7 10.00 Mostly Cloudy FEW026 BKN032 37.9 36 93% 33 29.85 1019.2
Date Time (akdt) Wind (mph) Vis. (mi.) Weather Sky Cond. Air Dwpt Max. Min. Relative Humidity Wind Chill (°F) Heat Index (°F) altimeter (in) sea level (mb) 1 hr 3 hr 6 hr
6 hour
Temperature (ºF) Pressure Precipitation (in)